Flight Track Log - Related Links

Times and Time Zones

All times are in EDT time to prevent confusion due to time zone crossing. See the N6045S flight status page for this flight to view local times or setup timezone preferences in your user account.

Time Position Orientation Groundspeed Altitude Reporting Facility
EDT Latitude Longitude Course Direction KTS MPH feet Rate Location/Type
Fri 11:25:06 AM 41.1333 -73.6833 47° Northeast 168 193 3,500  Level New York TRACON
Fri 11:26:12 AM 41.1667 -73.6333 48° Northeast 176 203 5,200 1,650 Climbing New York TRACON
Fri 11:27:06 AM 41.2000 -73.5833 48° Northeast 175 201 6,800 1,600 Climbing New York TRACON
Fri 11:28:12 AM 41.2333 -73.5333 48° Northeast 179 206 8,400 1,450 Climbing New York TRACON
Fri 11:29:06 AM 41.2667 -73.5000 37° Northeast 182 209 9,700 1,316 Climbing New York TRACON
Fri 11:30:00 AM 41.2148 -73.4931 47° Northeast  Level Estimated
Fri 11:30:06 AM 41.3000 -73.4500 48° Northeast 192 221 10,900  Level New York TRACON
Fri 11:31:00 AM 41.3333 -73.4000 48° Northeast 187 215 12,000 1,188 Climbing New York TRACON
Fri 11:31:42 AM 41.3525 -73.3692 50° Northeast 158 182 12,800 1,176 Climbing Boston Center
Fri 11:32:42 AM 41.3925 -73.3144 46° Northeast 172 198 14,000 1,050 Climbing Boston Center
Fri 11:33:42 AM 41.4242 -73.2650 49° Northeast 177 204 14,900 1,000 Climbing Boston Center
Fri 11:34:42 AM 41.4600 -73.2100 49° Northeast 191 220 16,000 1,000 Climbing Boston Center
Fri 11:35:42 AM 41.4936 -73.1578 49° Northeast 186 214 16,900 750 Climbing Boston Center
Fri 11:36:42 AM 41.5314 -73.1028 47° Northeast 186 214 17,500 300 Climbing Boston Center
Fri 11:37:42 AM 41.5714 -73.0394 50° Northeast 212 244 17,500  Level Boston Center
Fri 11:38:42 AM 41.6197 -72.9678 48° Northeast 239 275 17,500  Level Boston Center
Fri 11:39:42 AM 41.6658 -72.8986 48° Northeast 245 282 17,500  Level Boston Center
Fri 11:40:42 AM 41.7161 -72.8239 48° Northeast 252 290 17,500  Level Boston Center
Fri 11:41:42 AM 41.7644 -72.7517 48° Northeast 252 290 17,500  Level Boston Center
Fri 11:42:42 AM 41.8103 -72.6797 49° Northeast 257 296 17,500  Level Boston Center
Fri 11:43:42 AM 41.8500 -72.6183 49° Northeast 257 296 17,500  Level Boston Center
Fri 11:44:42 AM 41.9086 -72.5322 48° Northeast 257 296 17,500  Level Boston Center
Fri 11:45:42 AM 41.9522 -72.4597 51° Northeast 257 296 17,500  Level Boston Center
Fri 11:46:42 AM 42.0064 -72.3786 48° Northeast 257 296 17,500  Level Boston Center
Fri 11:47:42 AM 42.0503 -72.3114 49° Northeast 262 302 17,500  Level Boston Center
Fri 11:48:42 AM 42.1042 -72.2275 49° Northeast 262 302 17,500  Level Boston Center
Fri 11:49:42 AM 42.1500 -72.1572 49° Northeast 262 302 17,500  Level Boston Center
Fri 11:50:42 AM 42.2039 -72.0731 49° Northeast 268 308 17,500  Level Boston Center
Fri 11:51:42 AM 42.2475 -72.0053 49° Northeast 268 308 17,500  Level Boston Center
Fri 11:52:42 AM 42.3014 -71.9181 50° Northeast 268 308 17,500  Level Boston Center
Fri 11:53:42 AM 42.3531 -71.8389 49° Northeast 268 308 17,500  Level Boston Center
Fri 11:54:42 AM 42.3964 -71.7711 49° Northeast 268 308 17,500  Level Boston Center
Fri 11:55:42 AM 42.4522 -71.6861 48° Northeast 263 303 17,500  Level Boston Center
Fri 11:56:42 AM 42.4975 -71.6150 49° Northeast 269 310 17,500  Level Boston Center
Fri 11:57:42 AM 42.5531 -71.5269 49° Northeast 269 310 17,500  Level Boston Center
Fri 11:58:42 AM 42.5983 -71.4586 48° Northeast 269 310 17,500  Level Boston Center
Fri 11:59:42 AM 42.6539 -71.3703 49° Northeast 269 310 17,500  Level Boston Center
Fri 12:00:42 PM 42.6989 -71.2989 49° Northeast 269 310 17,500  Level Boston Center
Fri 12:01:42 PM 42.7522 -71.2131 50° Northeast 269 310 17,500  Level Boston Center
Fri 12:02:54 PM 42.8117 -71.1156 50° Northeast 269 310 17,500  Level Boston Center
Fri 12:03:54 PM 42.8567 -71.0467 48° Northeast 269 310 17,500  Level Boston Center
Fri 12:04:54 PM 42.9117 -70.9575 50° Northeast 264 304 17,500  Level Boston Center
Fri 12:05:54 PM 42.9547 -70.8883 50° Northeast 269 310 17,500  Level Boston Center
Fri 12:06:54 PM 43.0075 -70.7989 51° Northeast 269 310 17,500  Level Boston Center
Fri 12:07:54 PM 43.0503 -70.7325 49° Northeast 263 303 17,500  Level Boston Center
Fri 12:08:54 PM 43.1033 -70.6486 49° Northeast 263 303 17,500  Level Boston Center
Fri 12:09:54 PM 43.1439 -70.5792 51° Northeast 263 303 17,500  Level Boston Center
Fri 12:10:54 PM 43.1967 -70.4950 49° Northeast 263 303 17,500  Level Boston Center
Fri 12:11:54 PM 43.2453 -70.4164 50° Northeast 263 303 17,500  Level Boston Center
Fri 12:12:54 PM 43.2917 -70.3378 51° Northeast 263 303 17,500  Level Boston Center
Fri 12:13:54 PM 43.3403 -70.2619 49° Northeast 263 303 17,500  Level Boston Center
Fri 12:14:54 PM 43.3847 -70.1831 52° Northeast 263 303 17,500  Level Boston Center
Fri 12:15:54 PM 43.4333 -70.1069 49° Northeast 263 303 17,500  Level Boston Center
Fri 12:16:54 PM 43.4794 -70.0278 51° Northeast 263 303 17,500  Level Boston Center
Fri 12:17:54 PM 43.5258 -69.9486 51° Northeast 263 303 17,500  Level Boston Center
Fri 12:18:54 PM 43.5681 -69.8783 50° Northeast 263 303 17,500  Level Boston Center
Fri 12:19:54 PM 43.6203 -69.7928 50° Northeast 263 303 17,500  Level Boston Center
Fri 12:20:54 PM 43.6622 -69.7219 51° Northeast 263 303 17,500  Level Boston Center
Fri 12:21:54 PM 43.7122 -69.6336 52° Northeast 263 303 17,500  Level Boston Center
Fri 12:22:54 PM 43.7564 -69.5625 49° Northeast 263 303 17,500  Level Boston Center
Fri 12:23:54 PM 43.8103 -69.4736 50° Northeast 263 303 17,500  Level Boston Center
Fri 12:24:54 PM 43.8503 -69.4025 52° Northeast 263 303 17,500 -500 Level Boston Center
Fri 12:25:54 PM 43.9000 -69.3164 51° Northeast 268 308 16,500 -1,000 Descending Boston Center
Fri 12:26:54 PM 43.9536 -69.2242 51° Northeast 281 323 15,500 -1,200 Descending Boston Center
Fri 12:27:54 PM 44.0075 -69.1375 49° Northeast 287 330 14,100 -1,400 Descending Boston Center
Fri 12:28:54 PM 44.0572 -69.0511 51° Northeast 287 330 12,700 -1,450 Descending Boston Center
Fri 12:29:54 PM 44.1047 -68.9675 52° Northeast 276 318 11,200 -1,500 Descending Boston Center
Fri 12:30:54 PM 44.1503 -68.8894 51° Northeast 271 312 9,700 -1,500 Descending Boston Center
Fri 12:31:54 PM 44.1958 -68.8114 51° Northeast 266 306 8,200 -1,450 Descending Boston Center
Fri 12:32:54 PM 44.2392 -68.7392 50° Northeast 249 287 6,800 -1,450 Descending Boston Center
Fri 12:33:54 PM 44.2806 -68.6642 52° Northeast 243 280 5,300 -1,450 Descending Boston Center
Fri 12:34:54 PM 44.3261 -68.5886 50° Northeast 237 273 3,900 6,100 Descending Boston Center
Fri 12:35:54 PM 44.3733 -68.5072 51° Northeast 237 273 17,500 6,800 Climbing Boston Center
Fri 12:36:54 PM 44.4186 -68.4314 50° Northeast 237 273 17,500  Level Boston Center
Fri 12:37:54 PM 44.4619 -68.3558 51° Northeast 237 273 17,500  Level Boston Center
Fri 12:38:54 PM 44.5072 -68.2797 50° Northeast 237 273 17,500  Level Boston Center
Fri 12:39:54 PM 44.5072 -68.2797 325° Northwest 237 273 17,500  Level Boston Center
Fri 12:41:54 PM 44.5072 -68.2797 325° Northwest 237 273 17,500  Level Boston Center
Fri 12:43:00 PM 44.4424 -68.3414 214° Southwest  Level FlightAware Approximate
Fri 12:50:00 PM 44.4333 -68.3500 222° Southwest  Level FlightAware Approximate
Fri 12:51:00 PM 44.4498 -68.3616 222° Southwest  Level Estimated
Fri 12:52:00 PM 44.4498 -68.3616 222° Southwest  Level Estimated
Fri 12:53:00 PM 44.4498 -68.3616 222° Southwest  Level Estimated
Fri 12:54:00 PM 44.4498 -68.3616 222° Southwest  Level Estimated

Login

Don't have an account? Register now (free) for customized features, flight alerts, and more!